»·PEaware :: FDX710 KSAN-KBUR

FDX710 :: KSAN-KBUR

FLIGHT INFORMATION

Flight Status: Arrived
Operator:
Federal Express
More flights by this operator :: More flights under this callsign
Pilot: Ryan C. (15122)
Aircraft: BOEING 727-200
(B722)
More flights by this aircraft type
Origin: KSAN San Diego Intl-Lindbergh
United States
Destination: KBUR Bob Hope-Burbank
United States
More flights between these airports :: More routes between these airports
Route: PEBLE6 SLI V23 LAX LAX316 SILEX
File this flight plan on PilotEdge
Remarks:
Altitude:
(Current/Filed)
10,000ft
Speed:
(Current/Filed)
350kts
Departed: 09-Feb-19 08:38 PM
Arrived: 09-Feb-19 09:10 PM
Distance/Time
Traveled:
106nm/0:32
Distance/Time
To Go:
Arrived

Flight Plot

Page will automatically refresh every two minutes.


Map Options




Map Legend


Flown Route
Filed Route
Departure Airport
Arrival Airport
Navaid (VOR, NDB)
Fix

Horizontal Profiles

Position Reports

Time Latitude Longitude Heading Altitude Ground
Speed
09-Feb-19 20:06 32.736641 -117.185020 355 25ft 0kts
09-Feb-19 20:07 32.736641 -117.185020 355 25ft 0kts
09-Feb-19 20:08 32.736641 -117.185020 355 25ft 0kts
09-Feb-19 20:09 32.736641 -117.185020 355 25ft 0kts
09-Feb-19 20:11 32.736641 -117.185020 355 25ft 0kts
09-Feb-19 20:12 32.736641 -117.185020 355 25ft 0kts
09-Feb-19 20:13 32.736641 -117.185020 355 25ft 0kts
09-Feb-19 20:14 32.736641 -117.185020 355 25ft 0kts
09-Feb-19 20:15 32.736641 -117.185020 355 25ft 0kts
09-Feb-19 20:16 32.736641 -117.185020 355 25ft 0kts
09-Feb-19 20:17 32.736641 -117.185020 355 25ft 0kts
09-Feb-19 20:18 32.736641 -117.185020 355 25ft 0kts
09-Feb-19 20:19 32.736641 -117.185020 355 25ft 0kts
09-Feb-19 20:20 32.736641 -117.185020 355 25ft 0kts
09-Feb-19 20:21 32.736641 -117.185020 355 25ft 0kts
09-Feb-19 20:22 32.736641 -117.185020 355 25ft 0kts
09-Feb-19 20:23 32.736641 -117.185020 355 25ft 0kts
09-Feb-19 20:24 32.736640 -117.185020 355 25ft 0kts
09-Feb-19 20:25 32.736313 -117.185383 104 25ft 2kts
09-Feb-19 20:26 32.736545 -117.185671 144 25ft 0kts
09-Feb-19 20:27 32.736545 -117.185671 144 25ft 0kts
09-Feb-19 20:28 32.736545 -117.185671 144 25ft 0kts
09-Feb-19 20:29 32.736545 -117.185671 144 25ft 0kts
09-Feb-19 20:29 32.735252 -117.184570 144 25ft 15kts
09-Feb-19 20:31 32.732541 -117.180726 106 25ft 18kts
09-Feb-19 20:32 32.731557 -117.176861 123 28ft 10kts
09-Feb-19 20:32 32.731161 -117.175881 120 29ft 0kts
09-Feb-19 20:33 32.731161 -117.175881 120 29ft 0kts
09-Feb-19 20:34 32.731133 -117.175829 123 29ft 0kts
09-Feb-19 20:35 32.731133 -117.175829 123 29ft 0kts
09-Feb-19 20:36 32.730681 -117.175288 145 29ft 14kts
09-Feb-19 20:37 32.734643 -117.194136 287 231ft 151kts
09-Feb-19 20:38 32.757739 -117.242639 304 2381ft 219kts
09-Feb-19 20:39 32.797582 -117.312587 304 6114ft 263kts
09-Feb-19 20:40 32.838996 -117.385879 304 9710ft 275kts
09-Feb-19 20:41 32.883485 -117.463706 304 9958ft 287kts
09-Feb-19 20:42 32.946002 -117.521711 324 9954ft 287kts
09-Feb-19 20:43 33.007326 -117.582493 313 9953ft 288kts
09-Feb-19 20:44 33.060077 -117.653836 309 9950ft 283kts
09-Feb-19 20:45 33.108270 -117.725637 306 9955ft 277kts
09-Feb-19 20:46 33.154617 -117.796773 306 9982ft 272kts
09-Feb-19 20:47 33.211973 -117.849348 345 9986ft 272kts
09-Feb-19 20:48 33.281473 -117.880313 328 9982ft 265kts
09-Feb-19 20:49 33.346577 -117.922449 326 9991ft 268kts
09-Feb-19 20:50 33.406973 -117.974769 321 9992ft 270kts
09-Feb-19 20:51 33.468679 -118.028092 322 9991ft 275kts
09-Feb-19 20:52 33.531101 -118.081986 321 9990ft 278kts
09-Feb-19 20:53 33.594381 -118.136769 320 9990ft 282kts
09-Feb-19 20:54 33.658540 -118.192436 320 9989ft 285kts
09-Feb-19 20:55 33.722409 -118.247915 320 9668ft 277kts
09-Feb-19 20:56 33.782810 -118.300402 320 8694ft 260kts
09-Feb-19 20:57 33.841147 -118.351328 320 7999ft 263kts
09-Feb-19 20:58 33.901126 -118.404905 323 7990ft 271kts
09-Feb-19 20:59 33.967183 -118.449617 335 7990ft 276kts
09-Feb-19 21:00 34.036957 -118.482624 335 7349ft 261kts
09-Feb-19 21:01 34.105895 -118.502482 347 6392ft 253kts
09-Feb-19 21:02 34.174288 -118.517785 347 5942ft 252kts
09-Feb-19 21:03 34.241602 -118.533299 347 5179ft 240kts
09-Feb-19 21:04 34.306104 -118.548825 348 4862ft 241kts
09-Feb-19 21:05 34.348730 -118.495400 105 4920ft 265kts
09-Feb-19 21:06 34.301330 -118.429560 138 4841ft 257kts
09-Feb-19 21:07 34.251258 -118.374251 147 2703ft 199kts
09-Feb-19 21:08 34.210266 -118.359892 167 819ft 128kts
09-Feb-19 21:09 34.196803 -118.357144 267 789ft 4kts
09-Feb-19 21:10 34.196651 -118.359255 312 789ft 4kts
09-Feb-19 21:11 34.196184 -118.360127 180 789ft 0kts
09-Feb-19 21:12 34.196184 -118.360127 180 789ft 0kts
09-Feb-19 21:13 34.196184 -118.360127 180 789ft 0kts
09-Feb-19 21:14 34.196184 -118.360127 180 789ft 0kts
09-Feb-19 21:15 34.196184 -118.360127 180 789ft 0kts
09-Feb-19 21:16 34.196184 -118.360127 180 789ft 0kts
09-Feb-19 21:17 34.196184 -118.360127 180 789ft 0kts
09-Feb-19 21:18 34.196184 -118.360127 180 789ft 0kts
09-Feb-19 21:19 34.196184 -118.360127 180 789ft 0kts
09-Feb-19 21:20 34.196184 -118.360127 180 789ft 0kts
09-Feb-19 21:21 34.196184 -118.360127 180 789ft 0kts
09-Feb-19 21:22 34.196184 -118.360127 180 789ft 0kts
09-Feb-19 21:23 34.196184 -118.360127 180 789ft 0kts

Navigation Log

Ident Type
Flight plan parsing failed, navigation log unavailable